createdAt,value
2023-03-17T00:01:54.033Z,5.28
2023-03-17T00:04:22.425Z,4.50
2023-03-17T00:06:49.243Z,4.90
2023-03-17T00:09:18.156Z,4.57
2023-03-17T00:11:46.023Z,4.88
2023-03-17T00:14:13.170Z,4.45
2023-03-17T00:16:44.799Z,4.43
2023-03-17T00:19:22.420Z,4.95
2023-03-17T00:21:49.773Z,4.70
2023-03-17T00:24:17.117Z,4.70
2023-03-17T00:26:43.930Z,3.83
2023-03-17T00:29:11.116Z,4.53
2023-03-17T00:31:39.453Z,4.68
2023-03-17T00:34:07.403Z,4.40
2023-03-17T00:36:34.431Z,4.45
2023-03-17T00:39:01.449Z,4.25
2023-03-17T00:41:29.584Z,4.88
2023-03-17T00:43:57.198Z,4.18
2023-03-17T00:46:31.107Z,4.95
2023-03-17T00:48:57.881Z,4.10
2023-03-17T00:51:24.494Z,4.43
2023-03-17T00:53:51.124Z,4.50
2023-03-17T00:56:20.825Z,4.40
2023-03-17T00:58:48.875Z,4.80
2023-03-17T01:01:16.106Z,5.15
2023-03-17T01:03:42.850Z,5.03
2023-03-17T01:06:12.909Z,5.13
2023-03-17T01:08:40.902Z,5.15
2023-03-17T01:11:14.637Z,4.80
2023-03-17T01:13:41.635Z,5.20
2023-03-17T01:16:12.420Z,5.40
2023-03-17T01:18:39.963Z,4.82
2023-03-17T01:21:07.731Z,5.28
2023-03-17T01:23:34.418Z,4.80
2023-03-17T01:26:01.619Z,4.88
2023-03-17T01:28:28.427Z,5.10
2023-03-17T01:30:55.521Z,4.40
2023-03-17T01:33:22.220Z,5.28
2023-03-17T01:35:50.649Z,5.38
2023-03-17T01:38:17.833Z,4.70
2023-03-17T01:40:49.409Z,5.15
2023-03-17T01:43:20.633Z,4.95
2023-03-17T01:46:06.710Z,5.20
2023-03-17T01:48:44.491Z,5.00
2023-03-17T01:51:21.061Z,5.18
2023-03-17T01:53:51.067Z,4.80
2023-03-17T01:56:18.579Z,5.53
2023-03-17T01:58:47.434Z,6.13
2023-03-17T02:01:14.142Z,4.85
2023-03-17T02:03:42.109Z,5.22
2023-03-17T02:06:09.857Z,4.90
2023-03-17T02:08:36.456Z,4.28
2023-03-17T02:11:05.075Z,5.15
2023-03-17T02:13:32.926Z,5.38
2023-03-17T02:15:59.649Z,5.03
2023-03-17T02:18:26.385Z,4.55
2023-03-17T02:21:27.839Z,5.60
2023-03-17T02:23:56.168Z,5.57
2023-03-17T02:26:25.934Z,5.80
2023-03-17T02:28:53.695Z,5.50
2023-03-17T02:31:21.132Z,4.88
2023-03-17T02:33:47.803Z,5.43
2023-03-17T02:36:14.623Z,5.63
2023-03-17T02:38:41.263Z,5.13
2023-03-17T02:41:09.656Z,5.30
2023-03-17T02:43:37.277Z,5.65
2023-03-17T02:46:05.749Z,5.10
2023-03-17T02:48:34.207Z,6.07
2023-03-17T02:51:00.841Z,5.38
2023-03-17T02:53:27.443Z,5.80
2023-03-17T02:55:54.069Z,5.03
2023-03-17T02:58:21.089Z,5.28
2023-03-17T03:00:48.797Z,5.25
2023-03-17T03:03:16.113Z,5.38
2023-03-17T03:05:42.748Z,6.03
2023-03-17T03:08:09.665Z,4.95
2023-03-17T03:10:36.419Z,5.95
2023-03-17T03:13:03.101Z,5.05
2023-03-17T03:15:29.815Z,5.32
2023-03-17T03:17:56.609Z,5.55
2023-03-17T03:20:23.229Z,5.40
2023-03-17T03:22:49.839Z,5.32
2023-03-17T03:25:17.053Z,5.15
2023-03-17T03:27:43.686Z,5.20
2023-03-17T03:30:11.573Z,5.07
2023-03-17T03:32:38.284Z,5.43
2023-03-17T03:35:05.343Z,5.60
2023-03-17T03:37:31.951Z,5.63
2023-03-17T03:39:58.523Z,5.18
2023-03-17T03:42:25.121Z,5.57
2023-03-17T03:44:52.539Z,5.63
2023-03-17T03:47:19.113Z,5.82
2023-03-17T03:49:46.152Z,5.63
2023-03-17T03:52:12.771Z,5.35
2023-03-17T03:54:39.681Z,6.10
2023-03-17T03:57:06.523Z,5.05
2023-03-17T03:59:33.158Z,5.75
2023-03-17T04:01:59.716Z,5.75
2023-03-17T04:04:26.421Z,6.03
2023-03-17T04:06:53.071Z,5.80
2023-03-17T04:09:19.768Z,5.55
2023-03-17T04:11:46.369Z,5.20
2023-03-17T04:14:13.255Z,5.45
2023-03-17T04:16:42.845Z,5.60
2023-03-17T04:19:11.086Z,5.75
2023-03-17T04:21:37.782Z,5.55
2023-03-17T04:24:05.342Z,5.43
2023-03-17T04:26:32.536Z,5.63
2023-03-17T04:28:59.166Z,5.45
2023-03-17T04:31:26.231Z,5.65
2023-03-17T04:33:52.998Z,5.90
2023-03-17T04:36:24.282Z,5.30
2023-03-17T04:38:50.944Z,6.05
2023-03-17T04:41:17.698Z,5.75
2023-03-17T04:43:45.021Z,5.80
2023-03-17T04:46:11.729Z,6.15
2023-03-17T04:48:38.515Z,5.90
2023-03-17T04:51:05.352Z,5.53
2023-03-17T04:53:32.544Z,5.88
2023-03-17T04:55:59.155Z,5.50
2023-03-17T04:58:30.752Z,5.20
2023-03-17T05:00:58.384Z,5.05
2023-03-17T05:03:27.550Z,5.60
2023-03-17T05:05:54.560Z,5.60
2023-03-17T05:08:21.193Z,5.00
2023-03-17T05:10:47.784Z,5.05
2023-03-17T05:13:14.515Z,5.30
2023-03-17T05:15:44.162Z,5.93
2023-03-17T05:18:11.035Z,6.20
2023-03-17T05:20:37.697Z,5.70
2023-03-17T05:23:04.340Z,5.82
2023-03-17T05:25:30.922Z,5.53
2023-03-17T05:27:58.607Z,5.88
2023-03-17T05:30:25.496Z,5.57
2023-03-17T05:32:52.218Z,6.13
2023-03-17T05:35:19.012Z,5.80
2023-03-17T05:37:46.125Z,6.05
2023-03-17T05:40:14.565Z,5.78
2023-03-17T05:42:41.865Z,6.07
2023-03-17T05:45:09.510Z,6.18
2023-03-17T05:47:36.296Z,6.00
2023-03-17T05:50:05.203Z,6.15
2023-03-17T05:52:32.155Z,5.88
2023-03-17T05:54:58.767Z,6.10
2023-03-17T05:57:25.431Z,5.82
2023-03-17T05:59:52.040Z,6.15
2023-03-17T06:02:18.737Z,5.75
2023-03-17T06:04:45.688Z,6.32
2023-03-17T06:07:13.003Z,6.05
2023-03-17T06:09:40.023Z,5.90
2023-03-17T06:12:07.075Z,6.10
2023-03-17T06:14:33.790Z,5.57
2023-03-17T06:17:00.421Z,4.78
2023-03-17T06:19:27.047Z,6.15
2023-03-17T06:21:53.682Z,6.10
2023-03-17T06:24:20.513Z,6.30
2023-03-17T06:26:47.108Z,5.93
2023-03-17T06:29:13.739Z,6.00
2023-03-17T06:31:40.738Z,5.15
2023-03-17T06:34:08.184Z,5.10
2023-03-17T06:36:36.912Z,5.38
2023-03-17T06:39:04.857Z,5.13
2023-03-17T06:41:31.467Z,5.15
2023-03-17T06:43:58.117Z,5.43
2023-03-17T06:46:24.740Z,5.93
2023-03-17T06:48:51.362Z,5.30
2023-03-17T06:51:17.966Z,6.25
2023-03-17T06:53:44.619Z,5.82
2023-03-17T06:56:23.557Z,5.50
2023-03-17T06:58:54.109Z,4.82
2023-03-17T07:01:20.765Z,4.72
2023-03-17T07:03:47.505Z,5.35
2023-03-17T07:06:14.357Z,6.05
2023-03-17T07:08:41.696Z,5.78
2023-03-17T07:11:08.336Z,5.93
2023-03-17T07:13:37.153Z,6.28
2023-03-17T07:16:03.945Z,5.90
2023-03-17T07:18:32.054Z,6.50
2023-03-17T07:21:01.026Z,5.72
2023-03-17T07:23:28.615Z,6.65
2023-03-17T07:25:55.569Z,5.78
2023-03-17T07:28:22.573Z,5.65
2023-03-17T07:30:50.119Z,6.13
2023-03-17T07:33:17.851Z,5.30
2023-03-17T07:35:44.536Z,5.57
2023-03-17T07:38:11.949Z,5.78
2023-03-17T07:40:39.061Z,5.22
2023-03-17T07:43:05.769Z,5.53
2023-03-17T07:45:33.392Z,5.40
2023-03-17T07:48:01.051Z,6.18
2023-03-17T07:50:27.672Z,6.00
2023-03-17T07:52:54.292Z,5.35
2023-03-17T07:55:20.917Z,5.60
2023-03-17T07:57:47.559Z,5.50
2023-03-17T08:00:14.875Z,5.55
2023-03-17T08:02:41.776Z,6.25
2023-03-17T08:05:09.505Z,5.82
2023-03-17T08:07:40.559Z,5.80
2023-03-17T08:10:08.166Z,5.82
2023-03-17T08:12:35.432Z,5.22
2023-03-17T08:15:02.523Z,5.50
2023-03-17T08:17:29.110Z,5.88
2023-03-17T08:19:56.678Z,5.18
2023-03-17T08:22:24.759Z,4.55
2023-03-17T08:24:51.898Z,4.97
2023-03-17T08:27:20.641Z,4.65
2023-03-17T08:29:48.155Z,5.20
2023-03-17T08:32:15.113Z,4.07
2023-03-17T08:34:44.262Z,4.13
2023-03-17T08:37:11.600Z,4.07
2023-03-17T08:39:38.921Z,4.60
2023-03-17T08:42:06.018Z,4.45
2023-03-17T08:44:33.248Z,5.00
2023-03-17T08:47:00.085Z,4.70
2023-03-17T08:49:27.217Z,4.68
2023-03-17T08:51:54.401Z,4.78
2023-03-17T08:54:21.165Z,4.47
2023-03-17T08:56:47.774Z,4.57
2023-03-17T08:59:16.816Z,4.18
2023-03-17T09:01:45.391Z,3.95
2023-03-17T09:04:11.991Z,3.42
2023-03-17T09:06:48.901Z,3.67
2023-03-17T09:11:48.820Z,3.70
2023-03-17T09:14:15.449Z,3.42
2023-03-17T09:16:42.308Z,3.45
2023-03-17T09:19:08.926Z,3.58
2023-03-17T09:21:35.594Z,3.70
2023-03-17T09:24:02.762Z,3.38
2023-03-17T09:26:29.599Z,4.05
2023-03-17T09:28:56.378Z,3.85
2023-03-17T09:31:23.051Z,3.83
2023-03-17T09:33:49.741Z,3.50
2023-03-17T09:36:16.342Z,3.67
2023-03-17T09:38:43.057Z,3.50
2023-03-17T09:41:42.400Z,3.78
2023-03-17T09:44:28.661Z,3.28
2023-03-17T09:47:27.001Z,3.85
2023-03-17T09:50:01.087Z,3.17
2023-03-17T09:52:31.710Z,3.25
2023-03-17T09:54:59.964Z,3.15
2023-03-17T09:57:31.456Z,3.17
2023-03-17T10:00:09.096Z,3.00
2023-03-17T10:02:37.749Z,3.17
2023-03-17T10:05:28.877Z,3.33
2023-03-17T10:08:29.617Z,3.05
2023-03-17T10:11:01.824Z,3.30
2023-03-17T10:13:56.647Z,3.08
2023-03-17T10:16:36.815Z,3.15
2023-03-17T10:19:15.973Z,2.90
2023-03-17T10:21:52.432Z,2.60
2023-03-17T10:24:19.876Z,2.63
2023-03-17T10:26:50.804Z,2.90
2023-03-17T10:29:23.990Z,2.97
2023-03-17T10:31:53.053Z,2.60
2023-03-17T10:34:24.009Z,2.60
2023-03-17T10:36:56.065Z,2.45
2023-03-17T10:39:24.602Z,2.33
2023-03-17T10:41:59.700Z,2.47
2023-03-17T10:44:50.708Z,2.50
2023-03-17T10:47:35.179Z,2.22
2023-03-17T10:50:26.213Z,2.88
2023-03-17T10:53:03.062Z,2.20
2023-03-17T10:55:37.373Z,2.15
2023-03-17T10:58:46.690Z,2.30
2023-03-17T11:01:38.802Z,2.15
2023-03-17T11:04:33.920Z,2.47
2023-03-17T11:07:15.331Z,3.03
2023-03-17T11:09:42.188Z,2.30
2023-03-17T11:12:28.793Z,6.45
2023-03-17T11:15:00.723Z,2.22
2023-03-17T11:17:53.485Z,2.15
2023-03-17T11:20:34.992Z,2.35
2023-03-17T11:23:17.854Z,1.98
2023-03-17T11:25:49.578Z,2.30
2023-03-17T11:28:26.335Z,2.70
2023-03-17T11:31:09.349Z,2.53
2023-03-17T11:33:42.096Z,2.53
2023-03-17T11:36:36.765Z,1.92
2023-03-17T11:39:13.600Z,2.20
2023-03-17T11:41:44.899Z,2.03
2023-03-17T11:44:49.207Z,2.10
2023-03-17T11:47:50.319Z,2.47
2023-03-17T11:50:34.274Z,2.10
2023-03-17T11:53:30.952Z,1.95
2023-03-17T11:56:20.371Z,1.70
2023-03-17T11:58:54.709Z,1.77
2023-03-17T12:01:29.613Z,1.92
2023-03-17T12:04:08.451Z,1.73
2023-03-17T12:06:42.526Z,1.90
2023-03-17T12:09:33.171Z,1.52
2023-03-17T12:12:01.935Z,1.48
2023-03-17T12:14:30.623Z,1.67
2023-03-17T12:17:12.345Z,1.50
2023-03-17T12:19:42.510Z,1.80
2023-03-17T12:22:26.692Z,1.67
2023-03-17T12:25:19.509Z,1.40
2023-03-17T12:28:11.051Z,1.50
2023-03-17T12:30:49.610Z,1.55
2023-03-17T12:33:43.807Z,1.80
2023-03-17T12:36:17.525Z,2.08
2023-03-17T12:38:52.333Z,1.70
2023-03-17T12:41:40.347Z,1.90
2023-03-17T12:44:39.009Z,1.70
2023-03-17T12:47:36.283Z,1.90
2023-03-17T12:50:15.868Z,1.85
2023-03-17T12:52:57.286Z,1.77
2023-03-17T12:55:27.255Z,1.50
2023-03-17T12:58:02.089Z,1.70
2023-03-17T13:00:33.309Z,1.50
2023-03-17T13:03:27.893Z,1.73
2023-03-17T13:06:00.682Z,1.83
2023-03-17T13:08:33.722Z,1.80
2023-03-17T13:11:38.618Z,1.60
2023-03-17T13:14:15.511Z,2.30
2023-03-17T13:16:47.449Z,1.77
2023-03-17T13:19:22.586Z,1.60
2023-03-17T13:21:50.792Z,1.77
2023-03-17T13:24:17.985Z,1.83
2023-03-17T13:27:02.275Z,1.85
2023-03-17T13:29:32.271Z,1.55
2023-03-17T13:32:17.293Z,1.70
2023-03-17T13:34:55.840Z,1.50
2023-03-17T13:37:30.167Z,1.58
2023-03-17T13:40:21.376Z,1.52
2023-03-17T13:43:16.235Z,1.38
2023-03-17T13:45:44.827Z,1.55
2023-03-17T13:48:44.174Z,1.60
2023-03-17T13:51:26.263Z,1.58
2023-03-17T13:54:26.391Z,1.33
2023-03-17T13:57:00.074Z,1.50
2023-03-17T13:59:55.695Z,1.30
2023-03-17T14:02:26.027Z,1.30
2023-03-17T14:04:58.754Z,1.50
2023-03-17T14:10:04.780Z,1.35
2023-03-17T14:12:51.119Z,1.40
2023-03-17T14:15:34.946Z,1.20
2023-03-17T14:18:14.196Z,1.45
2023-03-17T14:20:41.048Z,1.50
2023-03-17T14:23:09.496Z,1.30
2023-03-17T14:25:38.838Z,1.50
2023-03-17T14:28:11.468Z,1.42
2023-03-17T14:30:38.809Z,1.13
2023-03-17T14:33:21.946Z,1.55
2023-03-17T14:35:51.685Z,1.85
2023-03-17T14:38:30.368Z,1.42
2023-03-17T14:41:04.247Z,1.23
2023-03-17T14:43:31.972Z,1.55
2023-03-17T14:46:04.861Z,1.08
2023-03-17T14:48:40.240Z,1.55
2023-03-17T14:51:23.878Z,1.00
2023-03-17T14:53:52.757Z,1.08
2023-03-17T14:56:31.286Z,1.50
2023-03-17T14:59:06.486Z,1.27
2023-03-17T15:01:43.619Z,1.20
2023-03-17T15:04:12.758Z,1.33
2023-03-17T15:06:51.493Z,1.20
2023-03-17T15:09:36.150Z,1.05
2023-03-17T15:12:17.976Z,1.40
2023-03-17T15:14:46.428Z,1.42
2023-03-17T15:17:23.065Z,1.77
2023-03-17T15:19:52.604Z,0.80
2023-03-17T15:22:34.326Z,2.00
2023-03-17T15:25:02.372Z,1.08
2023-03-17T15:27:30.750Z,1.45
2023-03-17T15:29:57.487Z,0.88
2023-03-17T15:32:26.124Z,1.00
2023-03-17T15:34:56.541Z,1.42
2023-03-17T15:37:29.544Z,1.35
2023-03-17T15:42:42.128Z,1.38
2023-03-17T15:45:09.260Z,1.42
2023-03-17T15:47:38.884Z,1.63
2023-03-17T15:50:16.353Z,1.77
2023-03-17T15:52:44.499Z,1.33
2023-03-17T15:55:21.631Z,1.35
2023-03-17T15:57:54.850Z,1.35
2023-03-17T16:00:24.029Z,1.50
2023-03-17T16:02:56.170Z,1.25
2023-03-17T16:05:34.928Z,1.53
2023-03-17T16:08:02.182Z,2.10
2023-03-17T16:10:32.134Z,1.60
2023-03-17T16:12:59.240Z,2.17
2023-03-17T16:15:28.389Z,1.50
2023-03-17T16:17:59.195Z,1.58
2023-03-17T16:20:44.027Z,1.25
2023-03-17T16:23:19.734Z,1.52
2023-03-17T16:25:46.789Z,1.38
2023-03-17T16:28:17.740Z,1.40
2023-03-17T16:30:45.032Z,1.10
2023-03-17T16:33:36.454Z,1.02
2023-03-17T16:36:04.755Z,1.27
2023-03-17T16:38:33.999Z,1.30
2023-03-17T16:41:22.411Z,1.30
2023-03-17T16:44:01.141Z,1.33
2023-03-17T16:46:34.059Z,1.52
2023-03-17T16:49:01.835Z,1.25
2023-03-17T16:51:28.432Z,1.60
2023-03-17T16:53:55.138Z,1.50
2023-03-17T16:56:24.666Z,1.42
2023-03-17T16:58:51.405Z,2.03
2023-03-17T17:01:21.269Z,1.95
2023-03-17T17:03:48.526Z,1.63
2023-03-17T17:06:15.433Z,1.88
2023-03-17T17:08:43.949Z,1.30
2023-03-17T17:11:12.940Z,1.10
2023-03-17T17:13:44.871Z,1.10
2023-03-17T17:16:33.570Z,1.40
2023-03-17T17:19:01.182Z,1.95
2023-03-17T17:21:28.425Z,1.05
2023-03-17T17:23:55.873Z,1.00
2023-03-17T17:26:23.004Z,1.23
2023-03-17T17:28:49.790Z,1.05
2023-03-17T17:31:16.708Z,1.10
2023-03-17T17:33:43.379Z,1.30
2023-03-17T17:36:16.342Z,1.10
2023-03-17T17:38:43.213Z,1.58
2023-03-17T17:41:11.208Z,1.20
2023-03-17T17:43:38.414Z,1.25
2023-03-17T17:46:11.424Z,1.58
2023-03-17T17:48:38.290Z,1.20
2023-03-17T17:51:05.110Z,2.03
2023-03-17T17:53:31.756Z,1.75
2023-03-17T17:55:58.770Z,1.20
2023-03-17T17:58:26.518Z,1.85
2023-03-17T18:00:57.536Z,1.88
2023-03-17T18:03:25.534Z,1.88
2023-03-17T18:05:54.429Z,1.92
2023-03-17T18:08:21.140Z,1.85
2023-03-17T18:10:49.185Z,1.77
2023-03-17T18:13:17.165Z,2.00
2023-03-17T18:15:43.817Z,2.20
2023-03-17T18:18:10.421Z,1.90
2023-03-17T18:20:38.139Z,2.28
2023-03-17T18:23:04.795Z,2.78
2023-03-17T18:25:31.415Z,2.08
2023-03-17T18:28:00.848Z,3.03
2023-03-17T18:30:30.824Z,3.42
2023-03-17T18:33:18.856Z,2.92
2023-03-17T18:35:50.906Z,3.20
2023-03-17T18:38:17.745Z,2.47
2023-03-17T18:40:44.705Z,2.20
2023-03-17T18:43:11.341Z,2.38
2023-03-17T18:45:38.038Z,2.60
2023-03-17T18:48:04.700Z,2.70
2023-03-17T18:50:31.496Z,1.90
2023-03-17T18:52:58.286Z,2.15
2023-03-17T18:55:24.974Z,2.83
2023-03-17T18:57:51.905Z,2.40
2023-03-17T19:00:18.916Z,2.47
2023-03-17T19:02:46.367Z,3.35
2023-03-17T19:05:14.248Z,2.63
2023-03-17T19:07:41.032Z,2.95
2023-03-17T19:10:09.767Z,2.72
2023-03-17T19:12:37.127Z,3.00
2023-03-17T19:15:06.463Z,2.95
2023-03-17T19:17:33.365Z,2.70
2023-03-17T19:20:00.086Z,3.33
2023-03-17T19:22:27.014Z,3.60
2023-03-17T19:24:53.745Z,4.00
2023-03-17T19:27:20.674Z,3.55
2023-03-17T19:29:47.414Z,3.25
2023-03-17T19:32:14.118Z,3.65
2023-03-17T19:34:41.349Z,4.28
2023-03-17T19:37:08.288Z,4.10
2023-03-17T19:39:35.205Z,4.88
2023-03-17T19:42:01.839Z,4.50
2023-03-17T19:44:28.751Z,3.72
2023-03-17T19:46:55.435Z,4.43
2023-03-17T19:49:22.406Z,3.70
2023-03-17T19:51:49.467Z,3.30
2023-03-17T19:54:16.500Z,3.95
2023-03-17T19:56:44.511Z,4.95
2023-03-17T19:59:11.182Z,4.20
2023-03-17T20:01:38.461Z,4.95
2023-03-17T20:04:06.837Z,5.72
2023-03-17T20:06:34.652Z,4.50
2023-03-17T20:09:03.940Z,4.38
2023-03-17T20:11:33.787Z,4.05
2023-03-17T20:14:01.581Z,4.30
2023-03-17T20:16:30.312Z,4.97
2023-03-17T20:18:56.944Z,4.70
2023-03-17T20:21:23.574Z,4.93
2023-03-17T20:23:50.358Z,5.40
2023-03-17T20:26:17.617Z,5.35
2023-03-17T20:28:44.256Z,3.90
2023-03-17T20:31:10.865Z,4.25
2023-03-17T20:33:37.532Z,4.07
2023-03-17T20:36:05.000Z,4.35
2023-03-17T20:38:33.334Z,3.67
2023-03-17T20:41:11.717Z,4.32
2023-03-17T20:43:38.867Z,3.85
2023-03-17T20:46:08.665Z,3.90
2023-03-17T20:48:37.196Z,3.72
2023-03-17T20:51:05.587Z,3.97
2023-03-17T20:53:33.353Z,4.07
2023-03-17T20:56:00.203Z,4.22
2023-03-17T20:58:27.619Z,4.70
2023-03-17T21:00:54.996Z,3.90
2023-03-17T21:03:21.737Z,4.60
2023-03-17T21:05:48.340Z,4.38
2023-03-17T21:08:15.493Z,4.95
2023-03-17T21:10:42.135Z,4.30
2023-03-17T21:13:08.904Z,4.70
2023-03-17T21:15:36.938Z,4.65
2023-03-17T21:18:03.764Z,4.50
2023-03-17T21:20:31.048Z,4.70
2023-03-17T21:22:57.795Z,4.40
2023-03-17T21:25:24.646Z,4.60
2023-03-17T21:27:52.168Z,4.45
2023-03-17T21:30:18.870Z,4.45
2023-03-17T21:32:45.536Z,4.70
2023-03-17T21:35:12.621Z,3.90
2023-03-17T21:37:39.224Z,3.95
2023-03-17T21:40:06.901Z,4.45
2023-03-17T21:42:34.220Z,4.40
2023-03-17T21:45:01.016Z,4.45
2023-03-17T21:47:29.842Z,4.50
2023-03-17T21:49:57.838Z,4.18
2023-03-17T21:52:25.198Z,4.55
2023-03-17T21:54:51.924Z,4.82
2023-03-17T21:57:18.714Z,4.80
2023-03-17T21:59:45.564Z,4.90
2023-03-17T22:02:13.055Z,5.40
2023-03-17T22:04:41.522Z,4.90
2023-03-17T22:07:08.437Z,5.60
2023-03-17T22:09:35.106Z,5.57
2023-03-17T22:12:02.024Z,5.47
2023-03-17T22:14:28.632Z,5.18
2023-03-17T22:16:55.468Z,5.28
2023-03-17T22:19:22.564Z,5.30
2023-03-17T22:21:50.262Z,5.32
2023-03-17T22:24:17.291Z,5.05
2023-03-17T22:26:44.205Z,5.20
2023-03-17T22:29:10.850Z,4.97
2023-03-17T22:31:37.530Z,5.38
2023-03-17T22:34:04.296Z,5.60
2023-03-17T22:36:31.954Z,5.78
2023-03-17T22:38:59.660Z,5.28
2023-03-17T22:41:28.631Z,5.07
2023-03-17T22:43:55.594Z,5.45
2023-03-17T22:46:22.512Z,5.03
2023-03-17T22:48:50.054Z,5.38
2023-03-17T22:51:19.451Z,5.30
2023-03-17T22:53:46.141Z,5.40
2023-03-17T22:56:14.026Z,6.35
2023-03-17T22:58:41.286Z,6.40
2023-03-17T23:01:08.708Z,6.55
2023-03-17T23:03:36.114Z,6.43
2023-03-17T23:06:04.835Z,6.72
2023-03-17T23:08:35.115Z,6.95
2023-03-17T23:11:08.548Z,6.22
2023-03-17T23:16:03.260Z,6.15
2023-03-17T23:18:30.078Z,5.88
2023-03-17T23:20:57.304Z,6.22
2023-03-17T23:23:24.333Z,5.63
2023-03-17T23:25:51.886Z,5.47
2023-03-17T23:28:19.183Z,6.22
2023-03-17T23:30:46.614Z,6.03
2023-03-17T23:33:14.846Z,6.20
2023-03-17T23:35:41.562Z,6.25
2023-03-17T23:38:08.688Z,5.75
2023-03-17T23:40:35.944Z,5.63
2023-03-17T23:43:02.664Z,5.75
2023-03-17T23:45:29.476Z,5.30
2023-03-17T23:47:57.421Z,5.03
2023-03-17T23:50:24.081Z,6.40
2023-03-17T23:52:50.783Z,6.20
2023-03-17T23:55:17.441Z,6.50
2023-03-17T23:57:44.272Z,6.57
